sensor_id;sensor_type;location;lat;lon;timestamp;P1;durP1;ratioP1;P2;durP2;ratioP2
71910;SDS011;59783;52.232;5.170;2022-08-03T00:00:53;6.82;;;2.95;;
71910;SDS011;59783;52.232;5.170;2022-08-03T00:03:18;9.35;;;3.03;;
71910;SDS011;59783;52.232;5.170;2022-08-03T00:05:44;9.55;;;2.85;;
71910;SDS011;59783;52.232;5.170;2022-08-03T00:08:09;6.82;;;2.63;;
71910;SDS011;59783;52.232;5.170;2022-08-03T00:10:34;11.32;;;2.55;;
71910;SDS011;59783;52.232;5.170;2022-08-03T00:13:00;9.63;;;3.45;;
71910;SDS011;59783;52.232;5.170;2022-08-03T00:15:25;8.35;;;2.80;;
71910;SDS011;59783;52.232;5.170;2022-08-03T00:17:50;9.43;;;2.72;;
71910;SDS011;59783;52.232;5.170;2022-08-03T00:20:15;11.75;;;1.95;;
71910;SDS011;59783;52.232;5.170;2022-08-03T00:22:41;7.70;;;2.90;;
71910;SDS011;59783;52.232;5.170;2022-08-03T00:25:06;9.25;;;2.75;;
71910;SDS011;59783;52.232;5.170;2022-08-03T00:27:32;7.90;;;2.85;;
71910;SDS011;59783;52.232;5.170;2022-08-03T00:29:57;10.40;;;2.92;;
71910;SDS011;59783;52.232;5.170;2022-08-03T00:32:23;7.95;;;2.85;;
71910;SDS011;59783;52.232;5.170;2022-08-03T00:34:48;9.63;;;3.13;;
71910;SDS011;59783;52.232;5.170;2022-08-03T00:37:13;10.30;;;3.78;;
71910;SDS011;59783;52.232;5.170;2022-08-03T00:39:38;8.35;;;3.17;;
71910;SDS011;59783;52.232;5.170;2022-08-03T00:42:05;7.80;;;3.05;;
71910;SDS011;59783;52.232;5.170;2022-08-03T00:44:30;11.00;;;3.10;;
71910;SDS011;59783;52.232;5.170;2022-08-03T00:46:56;9.10;;;2.67;;
71910;SDS011;59783;52.232;5.170;2022-08-03T00:49:21;9.60;;;3.30;;
71910;SDS011;59783;52.232;5.170;2022-08-03T00:51:47;10.32;;;3.17;;
71910;SDS011;59783;52.232;5.170;2022-08-03T00:54:13;8.88;;;3.13;;
71910;SDS011;59783;52.232;5.170;2022-08-03T00:56:38;9.75;;;2.70;;
71910;SDS011;59783;52.232;5.170;2022-08-03T00:59:05;10.55;;;3.15;;
71910;SDS011;59783;52.232;5.170;2022-08-03T01:01:30;8.20;;;2.85;;
71910;SDS011;59783;52.232;5.170;2022-08-03T01:03:56;13.32;;;3.28;;
71910;SDS011;59783;52.232;5.170;2022-08-03T01:12:09;11.05;;;2.58;;
71910;SDS011;59783;52.232;5.170;2022-08-03T01:14:43;8.77;;;2.95;;
71910;SDS011;59783;52.232;5.170;2022-08-03T01:17:18;10.27;;;2.85;;
71910;SDS011;59783;52.232;5.170;2022-08-03T01:22:39;10.23;;;3.33;;
71910;SDS011;59783;52.232;5.170;2022-08-03T01:25:20;10.07;;;2.55;;
71910;SDS011;59783;52.232;5.170;2022-08-03T01:30:21;12.57;;;3.15;;
71910;SDS011;59783;52.232;5.170;2022-08-03T01:32:53;9.75;;;3.47;;
71910;SDS011;59783;52.232;5.170;2022-08-03T01:35:24;10.98;;;2.83;;
71910;SDS011;59783;52.232;5.170;2022-08-03T01:38:01;11.52;;;3.10;;
71910;SDS011;59783;52.232;5.170;2022-08-03T01:40:28;9.88;;;3.13;;
71910;SDS011;59783;52.232;5.170;2022-08-03T01:42:56;10.07;;;3.15;;
71910;SDS011;59783;52.232;5.170;2022-08-03T01:45:24;11.57;;;3.30;;
71910;SDS011;59783;52.232;5.170;2022-08-03T01:47:50;10.18;;;2.00;;
71910;SDS011;59783;52.232;5.170;2022-08-03T01:50:18;9.18;;;3.00;;
71910;SDS011;59783;52.232;5.170;2022-08-03T01:52:45;8.23;;;3.38;;
71910;SDS011;59783;52.232;5.170;2022-08-03T01:55:11;9.95;;;3.22;;
71910;SDS011;59783;52.232;5.170;2022-08-03T01:57:37;8.52;;;3.10;;
71910;SDS011;59783;52.232;5.170;2022-08-03T02:00:03;11.07;;;3.60;;
71910;SDS011;59783;52.232;5.170;2022-08-03T02:02:31;13.45;;;1.90;;
71910;SDS011;59783;52.232;5.170;2022-08-03T02:04:57;9.48;;;3.45;;
71910;SDS011;59783;52.232;5.170;2022-08-03T02:07:23;10.90;;;4.00;;
71910;SDS011;59783;52.232;5.170;2022-08-03T02:09:49;13.20;;;3.70;;
71910;SDS011;59783;52.232;5.170;2022-08-03T02:12:15;9.88;;;3.47;;
71910;SDS011;59783;52.232;5.170;2022-08-03T02:14:42;11.02;;;3.55;;
71910;SDS011;59783;52.232;5.170;2022-08-03T02:17:08;7.93;;;3.20;;
71910;SDS011;59783;52.232;5.170;2022-08-03T02:19:34;8.82;;;3.75;;
71910;SDS011;59783;52.232;5.170;2022-08-03T02:22:00;10.57;;;3.22;;
71910;SDS011;59783;52.232;5.170;2022-08-03T02:24:27;10.77;;;3.63;;
71910;SDS011;59783;52.232;5.170;2022-08-03T02:26:54;11.85;;;3.17;;
71910;SDS011;59783;52.232;5.170;2022-08-03T02:29:20;13.60;;;3.85;;
71910;SDS011;59783;52.232;5.170;2022-08-03T02:31:49;9.10;;;4.05;;
71910;SDS011;59783;52.232;5.170;2022-08-03T02:34:15;10.60;;;3.50;;
71910;SDS011;59783;52.232;5.170;2022-08-03T02:36:41;13.10;;;3.90;;
71910;SDS011;59783;52.232;5.170;2022-08-03T02:39:09;10.85;;;3.70;;
71910;SDS011;59783;52.232;5.170;2022-08-03T02:41:36;10.65;;;3.55;;
71910;SDS011;59783;52.232;5.170;2022-08-03T02:44:08;13.88;;;3.67;;
71910;SDS011;59783;52.232;5.170;2022-08-03T02:46:36;13.32;;;4.20;;
71910;SDS011;59783;52.232;5.170;2022-08-03T02:49:02;13.18;;;4.18;;
71910;SDS011;59783;52.232;5.170;2022-08-03T02:51:29;10.48;;;4.05;;
71910;SDS011;59783;52.232;5.170;2022-08-03T02:53:55;13.60;;;4.18;;
71910;SDS011;59783;52.232;5.170;2022-08-03T02:56:22;11.00;;;3.67;;
71910;SDS011;59783;52.232;5.170;2022-08-03T02:58:48;10.15;;;3.78;;
71910;SDS011;59783;52.232;5.170;2022-08-03T03:01:14;10.55;;;3.50;;
71910;SDS011;59783;52.232;5.170;2022-08-03T03:03:40;13.15;;;4.32;;
71910;SDS011;59783;52.232;5.170;2022-08-03T03:06:06;9.85;;;3.75;;
71910;SDS011;59783;52.232;5.170;2022-08-03T03:08:32;16.02;;;4.18;;
71910;SDS011;59783;52.232;5.170;2022-08-03T03:10:58;9.10;;;3.80;;
71910;SDS011;59783;52.232;5.170;2022-08-03T03:13:24;11.82;;;4.47;;
71910;SDS011;59783;52.232;5.170;2022-08-03T03:15:51;11.68;;;3.90;;
71910;SDS011;59783;52.232;5.170;2022-08-03T03:18:16;18.83;;;4.55;;
71910;SDS011;59783;52.232;5.170;2022-08-03T03:20:42;10.90;;;4.00;;
71910;SDS011;59783;52.232;5.170;2022-08-03T03:23:09;17.65;;;4.43;;
71910;SDS011;59783;52.232;5.170;2022-08-03T03:25:34;15.10;;;4.47;;
71910;SDS011;59783;52.232;5.170;2022-08-03T03:28:00;15.05;;;3.95;;
71910;SDS011;59783;52.232;5.170;2022-08-03T03:30:26;13.68;;;4.05;;
71910;SDS011;59783;52.232;5.170;2022-08-03T03:32:52;11.75;;;4.10;;
71910;SDS011;59783;52.232;5.170;2022-08-03T03:35:17;13.63;;;3.88;;
71910;SDS011;59783;52.232;5.170;2022-08-03T03:37:42;14.82;;;4.38;;
71910;SDS011;59783;52.232;5.170;2022-08-03T03:40:08;13.55;;;3.75;;
71910;SDS011;59783;52.232;5.170;2022-08-03T03:42:34;15.63;;;4.28;;
71910;SDS011;59783;52.232;5.170;2022-08-03T03:45:03;13.98;;;3.90;;
71910;SDS011;59783;52.232;5.170;2022-08-03T03:47:29;11.80;;;4.28;;
71910;SDS011;59783;52.232;5.170;2022-08-03T03:49:55;12.82;;;5.00;;
71910;SDS011;59783;52.232;5.170;2022-08-03T03:52:21;12.43;;;4.13;;
71910;SDS011;59783;52.232;5.170;2022-08-03T03:54:46;13.93;;;3.85;;
71910;SDS011;59783;52.232;5.170;2022-08-03T03:57:12;13.25;;;5.03;;
71910;SDS011;59783;52.232;5.170;2022-08-03T03:59:40;14.05;;;4.30;;
71910;SDS011;59783;52.232;5.170;2022-08-03T04:02:07;14.07;;;4.15;;
71910;SDS011;59783;52.232;5.170;2022-08-03T04:04:33;12.63;;;4.30;;
71910;SDS011;59783;52.232;5.170;2022-08-03T04:07:17;14.00;;;3.97;;
71910;SDS011;59783;52.232;5.170;2022-08-03T04:10:02;13.82;;;4.53;;
71910;SDS011;59783;52.232;5.170;2022-08-03T04:12:48;14.15;;;3.92;;
71910;SDS011;59783;52.232;5.170;2022-08-03T04:15:15;16.75;;;4.78;;
71910;SDS011;59783;52.232;5.170;2022-08-03T04:17:42;14.00;;;4.75;;
71910;SDS011;59783;52.232;5.170;2022-08-03T04:20:08;13.55;;;4.25;;
71910;SDS011;59783;52.232;5.170;2022-08-03T04:22:35;13.23;;;4.25;;
71910;SDS011;59783;52.232;5.170;2022-08-03T04:25:04;16.50;;;4.18;;
71910;SDS011;59783;52.232;5.170;2022-08-03T04:27:33;14.77;;;4.68;;
71910;SDS011;59783;52.232;5.170;2022-08-03T04:30:01;12.90;;;4.22;;
71910;SDS011;59783;52.232;5.170;2022-08-03T04:32:29;12.00;;;4.07;;
71910;SDS011;59783;52.232;5.170;2022-08-03T04:34:54;14.00;;;4.82;;
71910;SDS011;59783;52.232;5.170;2022-08-03T04:37:23;14.48;;;4.82;;
71910;SDS011;59783;52.232;5.170;2022-08-03T04:39:52;17.58;;;4.50;;
71910;SDS011;59783;52.232;5.170;2022-08-03T04:42:18;11.57;;;3.10;;
71910;SDS011;59783;52.232;5.170;2022-08-03T04:44:45;13.95;;;5.13;;
71910;SDS011;59783;52.232;5.170;2022-08-03T04:47:10;15.88;;;4.30;;
71910;SDS011;59783;52.232;5.170;2022-08-03T04:49:36;10.65;;;4.05;;
71910;SDS011;59783;52.232;5.170;2022-08-03T04:52:02;12.27;;;4.93;;
71910;SDS011;59783;52.232;5.170;2022-08-03T04:54:28;14.68;;;4.55;;
71910;SDS011;59783;52.232;5.170;2022-08-03T04:56:53;12.98;;;4.43;;
71910;SDS011;59783;52.232;5.170;2022-08-03T04:59:19;15.25;;;4.15;;
71910;SDS011;59783;52.232;5.170;2022-08-03T05:01:44;13.20;;;4.65;;
71910;SDS011;59783;52.232;5.170;2022-08-03T05:04:09;14.32;;;4.68;;
71910;SDS011;59783;52.232;5.170;2022-08-03T05:06:35;13.80;;;4.47;;
71910;SDS011;59783;52.232;5.170;2022-08-03T05:09:00;12.80;;;4.18;;
71910;SDS011;59783;52.232;5.170;2022-08-03T05:11:26;13.43;;;4.53;;
71910;SDS011;59783;52.232;5.170;2022-08-03T05:13:51;12.15;;;4.00;;
71910;SDS011;59783;52.232;5.170;2022-08-03T05:16:16;11.75;;;4.75;;
71910;SDS011;59783;52.232;5.170;2022-08-03T05:18:42;15.82;;;4.07;;
71910;SDS011;59783;52.232;5.170;2022-08-03T05:21:08;13.45;;;4.95;;
71910;SDS011;59783;52.232;5.170;2022-08-03T05:23:34;17.08;;;4.95;;
71910;SDS011;59783;52.232;5.170;2022-08-03T05:25:59;11.90;;;4.60;;
71910;SDS011;59783;52.232;5.170;2022-08-03T05:28:24;14.98;;;3.83;;
71910;SDS011;59783;52.232;5.170;2022-08-03T05:30:50;15.30;;;5.53;;
71910;SDS011;59783;52.232;5.170;2022-08-03T05:33:15;11.40;;;4.28;;
71910;SDS011;59783;52.232;5.170;2022-08-03T05:35:40;17.42;;;4.43;;
71910;SDS011;59783;52.232;5.170;2022-08-03T05:38:06;13.63;;;4.68;;
71910;SDS011;59783;52.232;5.170;2022-08-03T05:40:31;13.52;;;4.50;;
71910;SDS011;59783;52.232;5.170;2022-08-03T05:42:57;18.90;;;4.97;;
71910;SDS011;59783;52.232;5.170;2022-08-03T05:45:22;14.15;;;4.97;;
71910;SDS011;59783;52.232;5.170;2022-08-03T05:47:48;18.58;;;4.88;;
71910;SDS011;59783;52.232;5.170;2022-08-03T05:50:14;14.40;;;4.90;;
71910;SDS011;59783;52.232;5.170;2022-08-03T05:52:40;11.70;;;5.65;;
71910;SDS011;59783;52.232;5.170;2022-08-03T05:55:07;13.50;;;4.05;;
71910;SDS011;59783;52.232;5.170;2022-08-03T05:57:33;16.02;;;4.20;;
71910;SDS011;59783;52.232;5.170;2022-08-03T05:59:58;12.50;;;4.05;;
71910;SDS011;59783;52.232;5.170;2022-08-03T06:02:25;13.07;;;4.50;;
71910;SDS011;59783;52.232;5.170;2022-08-03T06:04:50;17.70;;;4.85;;
71910;SDS011;59783;52.232;5.170;2022-08-03T06:07:15;12.18;;;4.53;;
71910;SDS011;59783;52.232;5.170;2022-08-03T06:09:41;14.95;;;5.10;;
71910;SDS011;59783;52.232;5.170;2022-08-03T06:12:06;18.20;;;3.33;;
71910;SDS011;59783;52.232;5.170;2022-08-03T06:14:31;14.82;;;3.20;;
71910;SDS011;59783;52.232;5.170;2022-08-03T06:16:57;14.85;;;4.53;;
71910;SDS011;59783;52.232;5.170;2022-08-03T06:19:22;15.52;;;4.57;;
71910;SDS011;59783;52.232;5.170;2022-08-03T06:21:48;17.73;;;5.05;;
71910;SDS011;59783;52.232;5.170;2022-08-03T06:24:13;19.38;;;5.35;;
71910;SDS011;59783;52.232;5.170;2022-08-03T06:26:39;17.27;;;5.18;;
71910;SDS011;59783;52.232;5.170;2022-08-03T06:29:04;14.13;;;5.53;;
71910;SDS011;59783;52.232;5.170;2022-08-03T06:31:29;17.88;;;4.15;;
71910;SDS011;59783;52.232;5.170;2022-08-03T06:33:55;17.73;;;5.45;;
71910;SDS011;59783;52.232;5.170;2022-08-03T06:36:20;15.70;;;5.72;;
71910;SDS011;59783;52.232;5.170;2022-08-03T06:38:45;20.50;;;5.63;;
71910;SDS011;59783;52.232;5.170;2022-08-03T06:41:11;18.27;;;6.07;;
71910;SDS011;59783;52.232;5.170;2022-08-03T06:43:36;18.65;;;5.80;;
71910;SDS011;59783;52.232;5.170;2022-08-03T06:46:02;15.68;;;5.18;;
71910;SDS011;59783;52.232;5.170;2022-08-03T06:48:29;15.68;;;3.78;;
71910;SDS011;59783;52.232;5.170;2022-08-03T06:50:55;19.98;;;5.60;;
71910;SDS011;59783;52.232;5.170;2022-08-03T06:53:20;18.70;;;5.70;;
71910;SDS011;59783;52.232;5.170;2022-08-03T06:55:45;19.15;;;7.30;;
71910;SDS011;59783;52.232;5.170;2022-08-03T06:58:11;13.75;;;5.65;;
71910;SDS011;59783;52.232;5.170;2022-08-03T07:00:36;26.77;;;7.68;;
71910;SDS011;59783;52.232;5.170;2022-08-03T07:03:01;17.15;;;7.30;;
71910;SDS011;59783;52.232;5.170;2022-08-03T07:05:27;19.92;;;7.18;;
71910;SDS011;59783;52.232;5.170;2022-08-03T07:07:55;17.73;;;7.18;;
71910;SDS011;59783;52.232;5.170;2022-08-03T07:10:21;20.63;;;7.03;;
71910;SDS011;59783;52.232;5.170;2022-08-03T07:12:47;18.25;;;7.80;;
71910;SDS011;59783;52.232;5.170;2022-08-03T07:15:12;19.70;;;7.75;;
71910;SDS011;59783;52.232;5.170;2022-08-03T07:17:37;22.02;;;8.18;;
71910;SDS011;59783;52.232;5.170;2022-08-03T07:20:04;17.95;;;8.32;;
71910;SDS011;59783;52.232;5.170;2022-08-03T07:22:30;21.90;;;8.43;;
71910;SDS011;59783;52.232;5.170;2022-08-03T07:24:56;19.30;;;8.52;;
71910;SDS011;59783;52.232;5.170;2022-08-03T07:27:22;19.10;;;8.27;;
71910;SDS011;59783;52.232;5.170;2022-08-03T07:29:47;19.63;;;8.43;;
71910;SDS011;59783;52.232;5.170;2022-08-03T07:32:13;15.90;;;7.95;;
71910;SDS011;59783;52.232;5.170;2022-08-03T07:34:38;16.55;;;7.82;;
71910;SDS011;59783;52.232;5.170;2022-08-03T07:37:03;20.63;;;7.53;;
71910;SDS011;59783;52.232;5.170;2022-08-03T07:39:29;18.15;;;7.40;;
71910;SDS011;59783;52.232;5.170;2022-08-03T07:41:54;21.02;;;7.57;;
71910;SDS011;59783;52.232;5.170;2022-08-03T07:44:19;18.77;;;7.82;;
71910;SDS011;59783;52.232;5.170;2022-08-03T07:46:45;21.27;;;6.93;;
71910;SDS011;59783;52.232;5.170;2022-08-03T07:49:11;20.40;;;6.93;;
71910;SDS011;59783;52.232;5.170;2022-08-03T07:51:36;19.92;;;6.82;;
71910;SDS011;59783;52.232;5.170;2022-08-03T07:54:02;19.55;;;5.57;;
71910;SDS011;59783;52.232;5.170;2022-08-03T07:56:28;22.75;;;7.35;;
71910;SDS011;59783;52.232;5.170;2022-08-03T07:58:54;18.67;;;5.65;;
71910;SDS011;59783;52.232;5.170;2022-08-03T08:01:19;18.35;;;7.15;;
71910;SDS011;59783;52.232;5.170;2022-08-03T08:03:45;16.42;;;7.03;;
71910;SDS011;59783;52.232;5.170;2022-08-03T08:06:11;16.00;;;6.53;;
71910;SDS011;59783;52.232;5.170;2022-08-03T08:08:39;20.25;;;6.88;;
71910;SDS011;59783;52.232;5.170;2022-08-03T08:11:05;21.05;;;7.40;;
71910;SDS011;59783;52.232;5.170;2022-08-03T08:13:30;16.38;;;7.22;;
71910;SDS011;59783;52.232;5.170;2022-08-03T08:15:55;18.92;;;8.13;;
71910;SDS011;59783;52.232;5.170;2022-08-03T08:18:21;21.50;;;7.80;;
71910;SDS011;59783;52.232;5.170;2022-08-03T08:20:47;16.30;;;6.75;;
71910;SDS011;59783;52.232;5.170;2022-08-03T08:23:13;19.60;;;5.93;;
71910;SDS011;59783;52.232;5.170;2022-08-03T08:25:38;18.88;;;5.78;;
71910;SDS011;59783;52.232;5.170;2022-08-03T08:28:04;24.23;;;8.10;;
71910;SDS011;59783;52.232;5.170;2022-08-03T08:30:30;17.85;;;7.43;;
71910;SDS011;59783;52.232;5.170;2022-08-03T08:32:56;17.77;;;7.93;;
71910;SDS011;59783;52.232;5.170;2022-08-03T08:35:23;20.90;;;8.27;;
71910;SDS011;59783;52.232;5.170;2022-08-03T08:37:49;16.60;;;8.55;;
71910;SDS011;59783;52.232;5.170;2022-08-03T08:40:15;16.83;;;7.93;;
71910;SDS011;59783;52.232;5.170;2022-08-03T08:42:40;18.85;;;8.23;;
71910;SDS011;59783;52.232;5.170;2022-08-03T08:45:07;15.93;;;5.78;;
71910;SDS011;59783;52.232;5.170;2022-08-03T08:47:35;16.40;;;6.68;;
71910;SDS011;59783;52.232;5.170;2022-08-03T08:50:02;16.92;;;8.85;;
71910;SDS011;59783;52.232;5.170;2022-08-03T08:52:28;20.25;;;8.18;;
71910;SDS011;59783;52.232;5.170;2022-08-03T08:54:57;20.88;;;7.07;;
71910;SDS011;59783;52.232;5.170;2022-08-03T08:57:25;24.67;;;7.55;;
71910;SDS011;59783;52.232;5.170;2022-08-03T08:59:54;16.73;;;7.28;;
71910;SDS011;59783;52.232;5.170;2022-08-03T09:02:21;18.77;;;7.72;;
71910;SDS011;59783;52.232;5.170;2022-08-03T09:04:47;24.23;;;8.25;;
71910;SDS011;59783;52.232;5.170;2022-08-03T09:07:13;19.75;;;8.40;;
71910;SDS011;59783;52.232;5.170;2022-08-03T09:09:38;21.63;;;8.13;;
71910;SDS011;59783;52.232;5.170;2022-08-03T09:12:03;18.95;;;9.63;;
71910;SDS011;59783;52.232;5.170;2022-08-03T09:14:29;31.48;;;10.02;;
71910;SDS011;59783;52.232;5.170;2022-08-03T09:16:55;24.73;;;9.20;;
71910;SDS011;59783;52.232;5.170;2022-08-03T09:19:26;24.23;;;8.75;;
71910;SDS011;59783;52.232;5.170;2022-08-03T09:25:01;20.70;;;8.43;;
71910;SDS011;59783;52.232;5.170;2022-08-03T09:27:44;14.30;;;7.75;;
71910;SDS011;59783;52.232;5.170;2022-08-03T09:30:13;21.35;;;9.23;;
71910;SDS011;59783;52.232;5.170;2022-08-03T09:32:40;22.33;;;10.10;;
71910;SDS011;59783;52.232;5.170;2022-08-03T09:35:06;20.98;;;10.23;;
71910;SDS011;59783;52.232;5.170;2022-08-03T09:37:32;23.23;;;10.07;;
71910;SDS011;59783;52.232;5.170;2022-08-03T09:39:57;22.70;;;10.25;;
71910;SDS011;59783;52.232;5.170;2022-08-03T09:42:23;18.55;;;9.80;;
71910;SDS011;59783;52.232;5.170;2022-08-03T09:44:49;23.05;;;10.35;;
71910;SDS011;59783;52.232;5.170;2022-08-03T09:47:16;22.88;;;10.55;;
71910;SDS011;59783;52.232;5.170;2022-08-03T09:50:10;20.40;;;10.68;;
71910;SDS011;59783;52.232;5.170;2022-08-03T09:52:37;21.33;;;11.18;;
71910;SDS011;59783;52.232;5.170;2022-08-03T09:57:33;20.23;;;10.07;;
71910;SDS011;59783;52.232;5.170;2022-08-03T10:00:09;19.75;;;11.50;;
71910;SDS011;59783;52.232;5.170;2022-08-03T10:02:36;23.88;;;10.45;;
71910;SDS011;59783;52.232;5.170;2022-08-03T10:05:02;23.05;;;10.27;;
71910;SDS011;59783;52.232;5.170;2022-08-03T10:07:28;21.30;;;10.23;;
71910;SDS011;59783;52.232;5.170;2022-08-03T10:09:54;20.65;;;11.15;;
71910;SDS011;59783;52.232;5.170;2022-08-03T10:12:23;20.42;;;9.50;;
71910;SDS011;59783;52.232;5.170;2022-08-03T10:14:50;26.52;;;10.40;;
71910;SDS011;59783;52.232;5.170;2022-08-03T10:17:16;24.05;;;10.65;;
71910;SDS011;59783;52.232;5.170;2022-08-03T10:19:42;22.10;;;10.57;;
71910;SDS011;59783;52.232;5.170;2022-08-03T10:22:29;25.08;;;9.82;;
71910;SDS011;59783;52.232;5.170;2022-08-03T10:25:07;19.70;;;9.57;;
71910;SDS011;59783;52.232;5.170;2022-08-03T10:27:35;19.13;;;9.38;;
71910;SDS011;59783;52.232;5.170;2022-08-03T10:30:06;18.67;;;8.73;;
71910;SDS011;59783;52.232;5.170;2022-08-03T10:32:33;17.90;;;8.07;;
71910;SDS011;59783;52.232;5.170;2022-08-03T10:35:07;20.10;;;8.70;;
71910;SDS011;59783;52.232;5.170;2022-08-03T10:37:36;17.13;;;7.88;;
71910;SDS011;59783;52.232;5.170;2022-08-03T10:40:05;16.67;;;7.68;;
71910;SDS011;59783;52.232;5.170;2022-08-03T10:42:32;15.30;;;7.20;;
71910;SDS011;59783;52.232;5.170;2022-08-03T10:45:05;18.00;;;7.25;;
71910;SDS011;59783;52.232;5.170;2022-08-03T10:47:33;16.92;;;6.72;;
71910;SDS011;59783;52.232;5.170;2022-08-03T10:49:58;16.33;;;6.80;;
71910;SDS011;59783;52.232;5.170;2022-08-03T10:52:24;16.25;;;4.78;;
71910;SDS011;59783;52.232;5.170;2022-08-03T10:54:49;18.77;;;6.07;;
71910;SDS011;59783;52.232;5.170;2022-08-03T11:00:24;18.23;;;7.00;;
71910;SDS011;59783;52.232;5.170;2022-08-03T11:05:29;15.82;;;5.72;;
71910;SDS011;59783;52.232;5.170;2022-08-03T11:10:41;14.48;;;5.97;;
71910;SDS011;59783;52.232;5.170;2022-08-03T11:13:06;15.48;;;5.88;;
71910;SDS011;59783;52.232;5.170;2022-08-03T11:15:33;16.40;;;6.78;;
71910;SDS011;59783;52.232;5.170;2022-08-03T11:18:16;17.38;;;6.43;;
71910;SDS011;59783;52.232;5.170;2022-08-03T11:20:49;14.90;;;4.93;;
71910;SDS011;59783;52.232;5.170;2022-08-03T11:26:14;14.27;;;5.40;;
71910;SDS011;59783;52.232;5.170;2022-08-03T11:28:42;15.45;;;6.07;;
71910;SDS011;59783;52.232;5.170;2022-08-03T11:34:04;14.50;;;4.65;;
71910;SDS011;59783;52.232;5.170;2022-08-03T11:36:32;14.88;;;5.22;;
71910;SDS011;59783;52.232;5.170;2022-08-03T11:39:42;20.63;;;5.35;;
71910;SDS011;59783;52.232;5.170;2022-08-03T11:44:47;11.50;;;5.75;;
71910;SDS011;59783;52.232;5.170;2022-08-03T11:47:13;14.23;;;5.22;;
71910;SDS011;59783;52.232;5.170;2022-08-03T11:49:42;14.45;;;5.15;;
71910;SDS011;59783;52.232;5.170;2022-08-03T11:52:09;14.88;;;5.13;;
71910;SDS011;59783;52.232;5.170;2022-08-03T11:54:34;10.75;;;3.22;;
71910;SDS011;59783;52.232;5.170;2022-08-03T11:57:00;12.55;;;4.53;;
71910;SDS011;59783;52.232;5.170;2022-08-03T11:59:32;14.93;;;5.10;;
71910;SDS011;59783;52.232;5.170;2022-08-03T12:02:07;12.32;;;5.35;;
71910;SDS011;59783;52.232;5.170;2022-08-03T12:07:31;13.75;;;5.50;;
71910;SDS011;59783;52.232;5.170;2022-08-03T12:10:06;10.80;;;4.57;;
71910;SDS011;59783;52.232;5.170;2022-08-03T12:15:01;15.10;;;4.63;;
71910;SDS011;59783;52.232;5.170;2022-08-03T12:19:59;13.25;;;4.60;;
71910;SDS011;59783;52.232;5.170;2022-08-03T12:22:37;12.18;;;4.68;;
71910;SDS011;59783;52.232;5.170;2022-08-03T12:25:06;14.73;;;4.95;;
71910;SDS011;59783;52.232;5.170;2022-08-03T12:27:32;17.02;;;4.82;;
71910;SDS011;59783;52.232;5.170;2022-08-03T12:29:59;11.98;;;4.00;;
71910;SDS011;59783;52.232;5.170;2022-08-03T12:32:28;11.68;;;3.95;;
71910;SDS011;59783;52.232;5.170;2022-08-03T12:34:54;11.32;;;3.60;;
71910;SDS011;59783;52.232;5.170;2022-08-03T12:37:24;11.85;;;3.22;;
71910;SDS011;59783;52.232;5.170;2022-08-03T12:39:51;12.38;;;4.68;;
71910;SDS011;59783;52.232;5.170;2022-08-03T12:44:42;12.40;;;4.35;;
71910;SDS011;59783;52.232;5.170;2022-08-03T12:47:07;18.80;;;4.13;;
71910;SDS011;59783;52.232;5.170;2022-08-03T12:49:50;13.02;;;4.45;;
71910;SDS011;59783;52.232;5.170;2022-08-03T12:52:17;11.98;;;4.13;;
71910;SDS011;59783;52.232;5.170;2022-08-03T12:54:53;11.35;;;2.95;;
71910;SDS011;59783;52.232;5.170;2022-08-03T12:57:19;11.85;;;4.38;;
71910;SDS011;59783;52.232;5.170;2022-08-03T12:59:45;9.90;;;3.95;;
71910;SDS011;59783;52.232;5.170;2022-08-03T13:02:18;13.80;;;3.97;;
71910;SDS011;59783;52.232;5.170;2022-08-03T13:04:44;10.38;;;4.22;;
71910;SDS011;59783;52.232;5.170;2022-08-03T13:07:11;9.40;;;4.18;;
71910;SDS011;59783;52.232;5.170;2022-08-03T13:12:07;8.77;;;3.50;;
71910;SDS011;59783;52.232;5.170;2022-08-03T13:14:34;8.45;;;2.55;;
71910;SDS011;59783;52.232;5.170;2022-08-03T13:16:59;9.18;;;3.78;;
71910;SDS011;59783;52.232;5.170;2022-08-03T13:19:25;15.68;;;4.15;;
71910;SDS011;59783;52.232;5.170;2022-08-03T13:21:50;10.57;;;3.97;;
71910;SDS011;59783;52.232;5.170;2022-08-03T13:24:15;9.57;;;3.53;;
71910;SDS011;59783;52.232;5.170;2022-08-03T13:26:41;7.53;;;3.47;;
71910;SDS011;59783;52.232;5.170;2022-08-03T13:29:06;9.60;;;3.50;;
71910;SDS011;59783;52.232;5.170;2022-08-03T13:31:31;10.85;;;3.10;;
71910;SDS011;59783;52.232;5.170;2022-08-03T13:33:56;12.02;;;3.40;;
71910;SDS011;59783;52.232;5.170;2022-08-03T13:36:22;10.40;;;3.30;;
71910;SDS011;59783;52.232;5.170;2022-08-03T13:41:14;10.70;;;3.27;;
71910;SDS011;59783;52.232;5.170;2022-08-03T13:43:39;14.25;;;3.72;;
71910;SDS011;59783;52.232;5.170;2022-08-03T13:46:04;8.30;;;3.10;;
71910;SDS011;59783;52.232;5.170;2022-08-03T13:48:29;9.82;;;3.38;;
71910;SDS011;59783;52.232;5.170;2022-08-03T13:50:55;10.50;;;3.20;;
71910;SDS011;59783;52.232;5.170;2022-08-03T13:53:20;8.48;;;2.95;;
71910;SDS011;59783;52.232;5.170;2022-08-03T13:55:45;10.07;;;2.92;;
71910;SDS011;59783;52.232;5.170;2022-08-03T13:58:11;7.57;;;2.95;;
71910;SDS011;59783;52.232;5.170;2022-08-03T14:00:36;6.65;;;2.38;;
71910;SDS011;59783;52.232;5.170;2022-08-03T14:03:03;8.40;;;2.10;;
71910;SDS011;59783;52.232;5.170;2022-08-03T14:05:29;10.05;;;2.42;;
71910;SDS011;59783;52.232;5.170;2022-08-03T14:07:55;9.43;;;1.63;;
71910;SDS011;59783;52.232;5.170;2022-08-03T14:10:20;7.28;;;2.28;;
71910;SDS011;59783;52.232;5.170;2022-08-03T14:12:46;8.88;;;2.55;;
71910;SDS011;59783;52.232;5.170;2022-08-03T14:15:11;10.50;;;2.20;;
71910;SDS011;59783;52.232;5.170;2022-08-03T14:17:37;9.98;;;2.20;;
71910;SDS011;59783;52.232;5.170;2022-08-03T14:20:02;10.60;;;2.63;;
71910;SDS011;59783;52.232;5.170;2022-08-03T14:22:30;8.77;;;2.35;;
71910;SDS011;59783;52.232;5.170;2022-08-03T14:24:55;15.50;;;2.53;;
71910;SDS011;59783;52.232;5.170;2022-08-03T14:27:21;9.63;;;2.25;;
71910;SDS011;59783;52.232;5.170;2022-08-03T14:29:47;9.77;;;2.33;;
71910;SDS011;59783;52.232;5.170;2022-08-03T14:32:12;6.63;;;1.38;;
71910;SDS011;59783;52.232;5.170;2022-08-03T14:34:38;8.40;;;2.42;;
71910;SDS011;59783;52.232;5.170;2022-08-03T14:37:03;9.55;;;2.08;;
71910;SDS011;59783;52.232;5.170;2022-08-03T14:39:28;9.80;;;2.00;;
71910;SDS011;59783;52.232;5.170;2022-08-03T14:41:53;8.05;;;2.80;;
71910;SDS011;59783;52.232;5.170;2022-08-03T14:44:19;7.05;;;2.50;;
71910;SDS011;59783;52.232;5.170;2022-08-03T14:46:44;9.05;;;2.80;;
71910;SDS011;59783;52.232;5.170;2022-08-03T14:49:09;8.68;;;2.38;;
71910;SDS011;59783;52.232;5.170;2022-08-03T14:51:35;10.27;;;3.05;;
71910;SDS011;59783;52.232;5.170;2022-08-03T14:54:00;9.85;;;2.53;;
71910;SDS011;59783;52.232;5.170;2022-08-03T14:56:25;10.80;;;2.85;;
71910;SDS011;59783;52.232;5.170;2022-08-03T14:58:50;9.63;;;2.75;;
71910;SDS011;59783;52.232;5.170;2022-08-03T15:01:16;7.82;;;2.30;;
71910;SDS011;59783;52.232;5.170;2022-08-03T15:03:41;10.10;;;2.40;;
71910;SDS011;59783;52.232;5.170;2022-08-03T15:06:10;8.10;;;2.95;;
71910;SDS011;59783;52.232;5.170;2022-08-03T15:08:36;8.55;;;3.45;;
71910;SDS011;59783;52.232;5.170;2022-08-03T15:11:01;9.02;;;2.58;;
71910;SDS011;59783;52.232;5.170;2022-08-03T15:13:26;11.13;;;3.15;;
71910;SDS011;59783;52.232;5.170;2022-08-03T15:15:52;10.30;;;2.70;;
71910;SDS011;59783;52.232;5.170;2022-08-03T15:18:17;9.18;;;2.22;;
71910;SDS011;59783;52.232;5.170;2022-08-03T15:20:44;8.77;;;1.55;;
71910;SDS011;59783;52.232;5.170;2022-08-03T15:23:09;6.20;;;2.33;;